Latest Weather Observations for Wadeye (Port Keats)

IDD60801

Issued at 3:05 pm CST Sunday 26 October 2014 (issued every 30 minutes, with the page automatically refreshed every 10 minutes)

About weather observations | Map of weather stations | Latest weather observations for NT | Other Formats
Station Details ID: 014948 Name: PORT KEATS AIRPORT Lat: -14.25 Lon: 129.53 Height: 28.0 m
Data from the previous 72 hours. | See also: Recent months at Wadeye (Port Keats)
Date/Time
CST
Temp
°C
App
Temp
°C
Dew
Point
Rel
Hum
%
Delta-T
°C
Wind Press
QNH
hPa
Press
MSL
hPa
Rain
since 9 am
mm
Dir
 
Spd
km/h
Gust
km/h
Spd
kts
Gust
kts
26/03:00pm 32.4 33.5 21.9 54 7.1 WNW 19 28 10 15 1010.2 1010.0 0.0
26/02:30pm 33.1 33.9 21.3 50 8.0 NW 19 30 10 16 1010.6 1010.4 0.0
26/02:00pm 32.1 32.0 20.7 51 7.6 NNW 22 28 12 15 1011.1 1010.9 0.0
26/01:30pm 32.4 31.7 19.6 46 8.4 NNW 22 30 12 16 1011.5 1011.3 0.0
26/01:00pm 32.5 32.7 20.1 48 8.2 NNW 19 28 10 15 1012.5 1012.3 0.0
26/12:30pm 32.0 32.2 19.3 47 8.3 NW 17 26 9 14 1012.9 1012.7 0.0
26/12:00pm 32.6 32.9 19.5 46 8.6 NW 17 22 9 12 1013.4 1013.2 0.0
26/11:30am 31.5 33.3 21.1 54 7.0 NW 13 19 7 10 1013.9 1013.7 0.0
26/11:00am 30.8 31.6 20.7 55 6.7 NW 17 22 9 12 1014.3 1014.1 0.0
26/10:30am 31.5 33.3 21.1 54 7.0 NW 13 22 7 12 1014.5 1014.3 0.0
26/10:00am 30.6 33.0 22.2 61 5.7 N 13 17 7 9 1014.8 1014.6 0.0
26/09:30am 29.9 32.6 22.1 63 5.3 NNE 11 20 6 11 1014.8 1014.6 0.0
26/09:00am 29.8 33.3 22.8 66 4.8 N 9 17 5 9 1015.0 1014.8 0.4
26/08:30am 28.9 32.1 23.1 71 4.0 ENE 11 13 6 7 1014.9 1014.7 0.4
26/08:00am 27.5 31.1 23.1 77 3.0 E 9 13 5 7 1014.7 1014.5 0.4
26/07:30am 26.3 30.2 23.0 82 2.2 ESE 7 9 4 5 1014.4 1014.2 0.4
26/07:00am 25.0 29.0 22.7 87 1.6 SSE 6 6 3 3 1013.8 1013.6 0.4
26/06:30am 24.8 29.1 22.7 88 1.4 SE 4 7 2 4 1013.5 1013.3 0.4
26/06:00am 24.7 29.5 22.8 89 1.3 ESE 2 7 1 4 1013.2 1013.0 0.4
26/05:30am 24.9 28.9 22.8 88 1.4 SE 6 7 3 4 1012.9 1012.7 0.4
26/05:00am 24.9 30.1 22.8 88 1.4 CALM 0 0 0 0 1012.5 1012.3 0.4
26/04:30am 24.7 29.8 22.6 88 1.4 CALM 0 0 0 0 1012.3 1012.1 0.4
26/04:00am 25.0 30.1 22.7 87 1.6 CALM 0 0 0 0 1012.1 1011.9 0.4
26/03:30am 24.9 29.7 22.2 85 1.8 CALM 0 0 0 0 1012.0 1011.8 0.4
26/03:00am 25.0 29.0 22.7 87 1.6 ENE 6 7 3 4 1012.2 1012.0 0.4
26/02:30am 25.2 30.1 22.3 84 1.9 CALM 0 0 0 0 1012.2 1012.0 0.4
26/02:00am 25.3 29.1 22.8 86 1.7 ENE 7 11 4 6 1012.7 1012.5 0.4
26/01:30am 25.4 30.3 22.3 83 2.1 CALM 0 0 0 0 1012.3 1012.1 0.4
26/01:00am 25.8 30.7 22.3 81 2.4 CALM 0 0 0 0 1012.4 1012.2 0.4
26/12:30am 25.7 29.9 21.8 79 2.6 WSW 2 7 1 4 1012.7 1012.5 0.4
26/12:00am 26.2 31.0 22.1 78 2.8 WNW 0 0 0 0 1012.8 1012.6 0.4
 
Date/Time
CST
Temp
°C
App
Temp
°C
Dew
Point
Rel
Hum
%
Delta-T
°C
Wind Press
QNH
hPa
Press
MSL
hPa
Rain
since 9 am
mm
Dir
 
Spd
km/h
Gust
km/h
Spd
kts
Gust
kts
25/11:30pm 26.8 30.7 22.6 78 2.8 WNW 6 9 3 5 1012.9 1012.7 0.4
25/11:00pm 26.9 30.6 22.3 76 3.1 W 6 9 3 5 1013.0 1012.8 0.4
25/10:30pm 26.9 30.6 22.3 76 3.1 W 6 7 3 4 1013.3 1013.1 0.4
25/10:00pm 27.1 30.8 22.5 76 3.1 W 7 11 4 6 1013.1 1012.9 0.4
25/09:30pm 27.0 30.6 22.0 74 3.4 W 6 9 3 5 1013.0 1012.8 0.4
25/09:00pm 27.5 31.2 22.2 73 3.6 WNW 6 9 3 5 1012.8 1012.6 0.4
25/08:30pm 27.5 31.1 22.0 72 3.7 W 6 9 3 5 1012.6 1012.4 0.4
25/08:00pm 27.8 31.4 22.1 71 3.8 W 6 9 3 5 1012.5 1012.3 0.4
25/07:30pm 28.1 31.6 22.1 70 4.0 WNW 7 11 4 6 1012.1 1011.9 0.4
25/07:00pm 28.5 30.5 21.5 66 4.7 W 13 20 7 11 1011.6 1011.4 0.4
25/06:30pm 29.1 31.0 21.3 62 5.2 WNW 13 22 7 12 1011.2 1011.0 0.4
25/06:00pm 29.6 30.5 21.5 61 5.4 NW 19 24 10 13 1011.1 1010.9 0.4
25/05:30pm 29.5 31.1 21.4 61 5.4 W 15 20 8 11 1011.0 1010.8 0.4
25/05:00pm 29.5 30.8 21.7 63 5.2 WNW 17 24 9 13 1011.1 1010.9 0.4
25/04:30pm 30.8 32.3 21.3 57 6.4 W 15 24 8 13 1011.3 1011.1 0.4
25/04:00pm 31.2 32.5 21.7 57 6.4 W 17 24 9 13 1011.5 1011.3 0.4
25/03:30pm 30.4 32.6 21.8 60 5.8 WNW 13 22 7 12 1011.7 1011.5 0.4
25/03:00pm 28.8 31.3 22.5 68 4.3 WNW 13 20 7 11 1011.8 1011.6 0.4
25/02:30pm 30.9 31.4 20.8 55 6.7 NW 19 30 10 16 1012.0 1011.8 0.0
25/02:00pm 32.6 33.3 20.5 49 8.1 W 17 26 9 14 1012.1 1011.9 0.0
25/01:30pm 32.6 33.1 21.1 50 7.7 NW 20 30 11 16 1012.8 1012.6 0.0
25/01:00pm 31.6 32.1 21.2 54 7.0 NW 20 26 11 14 1013.4 1013.2 0.0
25/12:30pm 31.1 32.8 21.6 57 6.4 WNW 15 24 8 13 1013.9 1013.7 0.0
25/12:00pm 31.9 33.8 22.0 55 6.7 NW 15 20 8 11 1014.4 1014.2 0.0
25/11:30am 30.6 33.2 21.9 59 5.9 W 11 20 6 11 1014.8 1014.6 0.0
25/11:00am 30.6 32.9 21.4 58 6.2 NW 11 20 6 11 1015.1 1014.9 0.0
25/10:30am 31.2 32.5 20.2 52 7.3 W 13 20 7 11 1015.3 1015.1 0.0
25/10:00am 30.5 31.8 20.1 53 6.9 NNW 13 17 7 9 1015.6 1015.4 0.0
25/09:30am 30.6 32.2 19.9 52 7.0 NNW 11 17 6 9 1015.7 1015.5 0.0
25/09:00am 30.5 31.9 20.4 54 6.7 NW 13 19 7 10 1015.6 1015.4 0.0
25/08:30am 29.9 32.8 21.0 59 5.9 NNW 7 13 4 7 1015.6 1015.4 0.0
25/08:00am 28.6 32.4 21.6 66 4.7 ENE 4 7 2 4 1015.5 1015.3 0.0
25/07:30am 27.9 31.4 22.1 70 3.9 E 7 9 4 5 1015.2 1015.0 0.0
25/07:00am 26.6 30.2 22.0 76 3.1 ESE 6 7 3 4 1014.9 1014.7 0.0
25/06:30am 25.9 30.6 22.0 79 2.6 CALM 0 0 0 0 1014.4 1014.2 0.0
25/06:00am 26.3 30.2 21.9 77 2.9 E 4 7 2 4 1014.1 1013.9 0.0
25/05:30am 26.4 31.1 22.0 77 2.9 CALM 0 0 0 0 1013.8 1013.6 0.0
25/05:00am 25.6 30.2 21.7 79 2.6 CALM 0 0 0 0 1013.2 1013.0 0.0
25/04:30am 26.7 31.1 22.1 76 3.1 NNW 2 6 1 3 1012.8 1012.6 0.0
25/04:00am 26.8 31.5 22.0 75 3.2 CALM 0 0 0 0 1012.7 1012.5 0.0
25/03:30am 27.0 30.4 22.0 74 3.4 E 7 11 4 6 1012.9 1012.7 0.0
25/03:00am 27.9 31.0 22.1 70 3.9 N 9 11 5 6 1012.3 1012.1 0.0
25/02:30am 27.7 31.3 22.0 71 3.8 NW 6 11 3 6 1012.1 1011.9 0.0
25/02:00am 27.8 30.5 22.1 71 3.8 NW 11 17 6 9 1012.0 1011.8 0.0
25/01:30am 27.9 30.6 22.1 70 3.9 NNW 11 15 6 8 1012.4 1012.2 0.0
25/01:00am 27.7 30.7 22.0 71 3.8 NNW 9 11 5 6 1012.5 1012.3 0.0
25/12:30am 27.2 30.5 21.9 73 3.6 N 7 9 4 5 1012.7 1012.5 0.0
25/12:00am 27.2 30.1 21.7 72 3.7 NNW 9 11 5 6 1012.4 1012.2 0.0
 
Date/Time
CST
Temp
°C
App
Temp
°C
Dew
Point
Rel
Hum
%
Delta-T
°C
Wind Press
QNH
hPa
Press
MSL
hPa
Rain
since 9 am
mm
Dir
 
Spd
km/h
Gust
km/h
Spd
kts
Gust
kts
24/11:30pm 26.5 29.6 21.0 72 3.6 NW 6 9 3 5 1012.5 1012.3 0.0
24/11:00pm 26.5 29.3 20.8 71 3.8 WNW 7 9 4 5 1012.3 1012.1 0.0
24/10:30pm 27.9 31.2 21.4 67 4.3 NNW 6 9 3 5 1012.3 1012.1 0.0
24/10:00pm 27.2 30.3 21.0 69 4.1 W 6 7 3 4 1012.1 1011.9 0.0
24/09:30pm 28.0 31.2 21.3 67 4.5 W 6 9 3 5 1012.0 1011.8 0.0
24/09:00pm 28.4 31.1 21.4 66 4.7 NNW 9 13 5 7 1011.6 1011.4 0.0
24/08:30pm 28.6 31.0 21.6 66 4.7 NNW 11 15 6 8 1011.4 1011.2 0.0
24/08:00pm 28.4 31.8 21.7 67 4.5 WNW 6 9 3 5 1011.0 1010.8 0.0
24/07:30pm 28.7 31.9 21.7 66 4.7 WNW 7 11 4 6 1010.4 1010.2 0.0
24/07:00pm 29.3 31.9 20.5 59 5.8 WNW 7 11 4 6 1010.4 1010.2 0.0
24/06:30pm 30.0 31.6 20.0 55 6.6 W 11 20 6 11 1010.1 1009.9 0.0
24/06:00pm 30.7 30.9 19.4 51 7.4 W 17 24 9 13 1009.9 1009.7 0.0
24/05:30pm 31.1 31.5 19.8 51 7.4 W 17 30 9 16 1009.8 1009.6 0.0
24/05:00pm 31.5 31.9 19.8 49 7.7 W 17 28 9 15 1009.6 1009.4 0.0
24/04:30pm 31.3 31.4 19.9 50 7.5 WNW 19 28 10 15 1009.8 1009.6 0.0
24/04:00pm 31.5 32.0 20.8 53 7.2 W 19 28 10 15 1010.1 1009.9 0.0
24/03:30pm 32.2 33.5 21.7 54 7.1 W 17 22 9 12 1010.2 1010.0 0.0
24/03:00pm 31.9 32.2 20.5 51 7.6 NW 19 30 10 16 1010.5 1010.3 0.0
24/02:30pm 32.1 32.4 20.4 50 7.8 WNW 19 26 10 14 1010.6 1010.4 0.0
24/02:00pm 32.0 32.9 20.9 52 7.4 W 17 22 9 12 1011.1 1010.9 0.0
24/01:30pm 32.8 33.1 20.7 49 8.1 NNW 20 28 11 15 1011.4 1011.2 0.0
24/01:00pm 32.3 33.6 20.9 51 7.6 NNW 15 24 8 13 1012.0 1011.8 0.0
24/12:30pm 31.8 32.5 20.4 51 7.6 NNW 17 28 9 15 1012.6 1012.4 0.0
24/12:00pm 31.4 33.1 21.6 56 6.6 NNW 15 24 8 13 1013.1 1012.9 0.0
24/11:30am 31.1 32.4 21.6 57 6.4 NW 17 20 9 11 1013.5 1013.3 0.0
24/11:00am 31.4 32.6 20.7 53 7.1 N 15 22 8 12 1013.8 1013.6 0.0
24/10:30am 30.3 31.2 20.8 56 6.3 NNW 17 24 9 13 1014.3 1014.1 0.0
24/10:00am 31.4 32.8 21.0 54 7.0 NNW 15 19 8 10 1014.5 1014.3 0.0
24/09:30am 30.6 31.6 21.1 57 6.4 N 17 22 9 12 1014.6 1014.4 0.0
24/09:00am 29.5 30.8 20.9 60 5.7 N 15 20 8 11 1014.4 1014.2 1.4
24/08:30am 29.5 32.2 20.6 58 5.9 NNE 7 13 4 7 1014.2 1014.0 1.4
24/08:00am 28.0 30.6 20.0 61 5.2 NE 6 9 3 5 1014.1 1013.9 1.4
24/07:30am 26.7 28.9 20.5 69 4.1 ENE 9 11 5 6 1013.7 1013.5 1.4
24/07:00am 26.1 29.7 21.3 75 3.2 SSE 4 7 2 4 1013.5 1013.3 1.4
24/06:30am 25.1 29.1 20.6 76 2.9 CALM 0 0 0 0 1013.1 1012.9 1.4
24/06:00am 25.8 27.2 20.4 72 3.5 N 13 17 7 9 1012.8 1012.6 1.4
24/05:30am 26.2 28.7 22.5 80 2.5 NNW 13 19 7 10 1012.3 1012.1 1.4
24/05:00am 26.0 29.6 23.1 84 2.0 ESE 9 11 5 6 1012.8 1012.6 1.4
24/04:30am 26.3 30.2 22.6 80 2.5 NE 6 7 3 4 1012.3 1012.1 1.4
24/04:00am 26.8 30.8 23.1 80 2.5 NW 7 11 4 6 1011.9 1011.7 1.4
24/03:30am 26.1 30.3 23.2 84 2.0 WNW 6 9 3 5 1011.7 1011.5 1.4
24/03:00am 26.6 31.8 23.5 83 2.1 N 2 7 1 4 1011.9 1011.7 1.4
24/02:30am 26.3 31.0 24.0 87 1.6 NW 6 9 3 5 1012.0 1011.8 1.4
24/02:00am 24.8 28.4 22.3 86 1.7 W 7 9 4 5 1012.0 1011.8 1.4
24/01:30am 25.4 29.6 23.5 89 1.3 WNW 7 11 4 6 1012.1 1011.9 1.4
24/01:00am 24.7 28.4 22.2 86 1.7 W 6 7 3 4 1012.2 1012.0 1.4
24/12:30am 25.3 29.8 23.0 87 1.6 W 4 7 2 4 1012.4 1012.2 1.4
24/12:00am 24.8 29.7 22.3 86 1.7 CALM 0 0 0 0 1012.7 1012.5 1.4
 
Date/Time
CST
Temp
°C
App
Temp
°C
Dew
Point
Rel
Hum
%
Delta-T
°C
Wind Press
QNH
hPa
Press
MSL
hPa
Rain
since 9 am
mm
Dir
 
Spd
km/h
Gust
km/h
Spd
kts
Gust
kts
23/11:30pm 25.4 30.3 22.3 83 2.1 CALM 0 0 0 0 1013.0 1012.8 1.4
23/11:00pm 25.9 30.7 22.2 80 2.5 CALM 0 0 0 0 1013.1 1012.9 1.4
23/10:30pm 26.2 31.1 22.3 79 2.6 CALM 0 0 0 0 1012.9 1012.7 1.4
23/10:00pm 26.7 31.5 22.1 76 3.1 CALM 0 0 0 0 1012.7 1012.5 1.4
23/09:30pm 27.5 31.3 22.4 73 3.4 NNW 6 9 3 5 1012.4 1012.2 1.4
23/09:00pm 27.5 31.0 22.2 73 3.6 NW 7 11 4 6 1011.9 1011.7 1.4
23/08:30pm 27.5 31.1 22.0 72 3.7 W 6 9 3 5 1011.6 1011.4 1.4
23/08:00pm 27.8 31.3 22.1 71 3.8 W 7 13 4 7 1011.3 1011.1 1.4
23/07:30pm 28.0 31.1 21.5 67 4.3 W 7 17 4 9 1011.1 1010.9 1.4
23/07:00pm 28.3 31.0 21.3 65 4.7 W 9 17 5 9 1010.9 1010.7 1.4
23/06:30pm 29.0 31.0 21.5 64 5.0 WNW 13 19 7 10 1010.6 1010.4 1.4
23/06:00pm 29.5 30.8 21.7 63 5.3 W 17 28 9 15 1010.0 1009.8 1.4
23/05:30pm 30.4 31.4 21.8 60 5.8 W 19 26 10 14 1010.0 1009.8 1.4
23/05:00pm 30.4 31.9 21.2 58 6.2 NW 15 20 8 11 1010.6 1010.4 1.4
23/04:30pm 31.8 34.0 21.9 55 6.7 W 13 22 7 12 1010.2 1010.0 1.4
23/04:00pm 31.1 32.2 21.9 58 6.2 W 19 28 10 15 1010.3 1010.1 1.4
23/03:30pm 31.6 32.7 22.0 56 6.5 WNW 19 32 10 17 1010.2 1010.0 1.4

Other Formats:

Comma delimited format used in spreadsheet applications
http://www.bom.gov.au/fwo/IDD60801/IDD60801.95111.axf

JavaScript Object Notation format (JSON) in row-major order
http://www.bom.gov.au/fwo/IDD60801/IDD60801.95111.json